Time;durP1;ratioP1;P1;durP2;ratioP2;P2;SDS_P1;SDS_P2;PMS_P1;PMS_P2;Temp;Humidity;BMP_temperature;BMP_pressure;BME280_temperature;BME280_humidity;BME280_pressure;Samples;Min_cycle;Max_cycle;Signal;HPM_P1;HPM_P2
2022/01/01 00:01:19;;;;;;;22.13;12.88;;;;;;;9.95;100.00;101524.81;20957388;28;20509;-82
2022/01/01 00:11:21;;;;;;;12.65;8.10;;;;;;;10.01;100.00;101527.44;20905025;28;20044;-83
2022/01/01 00:21:25;;;;;;;15.57;9.65;;;;;;;10.02;100.00;101535.31;20922225;28;20045;-82
2022/01/01 00:31:28;;;;;;;11.85;7.03;;;;;;;9.97;100.00;101530.94;20901542;28;20094;-82
2022/01/01 00:41:29;;;;;;;9.15;5.57;;;;;;;9.96;100.00;101527.41;20896272;28;20106;-82
2022/01/01 00:51:31;;;;;;;8.82;4.38;;;;;;;9.93;100.00;101534.41;20923374;28;20506;-82
2022/01/01 01:01:32;;;;;;;10.57;5.32;;;;;;;9.87;100.00;101540.47;20937286;28;20070;-82
2022/01/01 01:11:41;;;;;;;7.05;4.38;;;;;;;9.93;100.00;101535.25;20931775;28;20114;-82
2022/01/01 01:21:44;;;;;;;8.93;4.70;;;;;;;9.93;100.00;101529.16;20894090;28;20487;-83
2022/01/01 01:31:46;;;;;;;8.18;4.45;;;;;;;9.97;100.00;101528.31;20909614;28;20052;-82
2022/01/01 01:41:51;;;;;;;9.13;4.30;;;;;;;10.03;100.00;101546.66;20897525;28;20106;-83
2022/01/01 01:51:53;;;;;;;8.63;4.47;;;;;;;10.10;100.00;101522.25;20906541;28;20045;-83
2022/01/01 02:01:55;;;;;;;8.25;4.13;;;;;;;10.05;100.00;101523.09;20936126;28;20053;-83
2022/01/01 02:11:58;;;;;;;7.78;4.43;;;;;;;10.11;100.00;101520.50;20960503;28;20049;-83
2022/01/01 02:22:04;;;;;;;9.95;4.32;;;;;;;10.15;100.00;101524.88;20931695;28;20045;-82
2022/01/01 02:32:11;;;;;;;7.35;4.40;;;;;;;10.14;100.00;101525.75;20928425;28;20049;-82
2022/01/01 02:42:18;;;;;;;8.75;3.85;;;;;;;10.08;100.00;101515.28;20929997;28;20048;-82
2022/01/01 02:52:19;;;;;;;7.82;4.05;;;;;;;10.09;100.00;101509.16;20917175;28;20049;-83
2022/01/01 03:02:21;;;;;;;7.35;4.28;;;;;;;10.06;100.00;101498.69;20925691;28;20464;-83
2022/01/01 03:12:23;;;;;;;9.57;4.43;;;;;;;10.07;100.00;101490.84;20955254;28;20120;-83
2022/01/01 03:22:24;;;;;;;8.45;5.13;;;;;;;10.03;100.00;101479.50;20902694;28;20146;-84
2022/01/01 03:32:26;;;;;;;9.93;5.00;;;;;;;9.98;100.00;101480.34;20896168;28;20045;-83
2022/01/01 03:42:27;;;;;;;9.55;5.97;;;;;;;9.68;100.00;101468.00;20895420;28;20049;-84
2022/01/01 03:52:29;;;;;;;14.27;8.07;;;;;;;9.40;100.00;101478.31;20894425;28;20604;-84
2022/01/01 04:02:31;;;;;;;19.60;11.00;;;;;;;9.17;100.00;101472.91;20894067;28;20049;-84
2022/01/01 04:12:33;;;;;;;20.77;12.13;;;;;;;8.91;100.00;101464.91;20892834;28;20482;-83
2022/01/01 04:22:35;;;;;;;23.15;12.93;;;;;;;8.64;100.00;101468.13;20913833;28;20544;-84
2022/01/01 04:32:36;;;;;;;27.73;14.48;;;;;;;8.47;100.00;101481.00;20916412;28;20418;-84
2022/01/01 04:42:38;;;;;;;31.00;14.75;;;;;;;8.40;100.00;101501.81;20907070;28;20445;-84
2022/01/01 04:52:42;;;;;;;30.58;14.88;;;;;;;8.44;100.00;101507.09;20889178;28;20045;-83
2022/01/01 05:02:43;;;;;;;31.90;16.02;;;;;;;8.50;100.00;101528.88;20906402;28;20048;-84
2022/01/01 05:12:47;;;;;;;28.13;15.60;;;;;;;8.58;100.00;101538.56;20889821;28;20044;-84
2022/01/01 05:22:49;;;;;;;27.92;15.38;;;;;;;8.71;100.00;101523.88;20906434;28;20048;-84
2022/01/01 05:32:50;;;;;;;28.02;15.50;;;;;;;8.77;100.00;101521.34;20890522;28;20057;-84
2022/01/01 05:42:53;;;;;;;29.05;15.25;;;;;;;8.81;100.00;101514.41;20911254;28;20048;-84
2022/01/01 05:52:54;;;;;;;29.17;14.52;;;;;;;8.70;100.00;101527.34;20887031;28;20438;-83
2022/01/01 06:02:57;;;;;;;25.27;13.65;;;;;;;8.67;100.00;101522.09;20885311;28;20481;-84
2022/01/01 06:12:59;;;;;;;25.25;14.00;;;;;;;8.67;100.00;101527.31;20885172;28;20049;-84
2022/01/01 06:23:03;;;;;;;25.98;14.13;;;;;;;8.56;100.00;101521.13;20903306;28;20095;-84
2022/01/01 06:33:16;;;;;;;21.75;11.93;;;;;;;8.39;100.00;101526.16;20887944;28;20122;-83
2022/01/01 06:43:18;;;;;;;21.38;11.38;;;;;;;8.22;100.00;101523.31;20895840;28;20045;-83
2022/01/01 06:53:20;;;;;;;21.58;11.20;;;;;;;8.05;100.00;101527.44;20905430;28;20587;-84
2022/01/01 07:03:22;;;;;;;20.15;11.80;;;;;;;7.93;100.00;101534.25;20900020;28;21779;-83
2022/01/01 07:13:25;;;;;;;25.83;13.75;;;;;;;7.89;100.00;101532.47;20899467;28;20045;-83
2022/01/01 07:23:26;;;;;;;24.48;13.68;;;;;;;7.88;100.00;101540.28;20916927;28;20119;-83
2022/01/01 07:33:28;;;;;;;27.55;14.57;;;;;;;7.89;100.00;101549.84;20897630;28;20095;-83
2022/01/01 07:43:29;;;;;;;29.85;15.43;;;;;;;7.89;100.00;101552.44;20898734;28;20090;-84
2022/01/01 07:53:31;;;;;;;27.15;15.07;;;;;;;7.97;100.00;101564.75;20898264;28;20410;-84
2022/01/01 08:03:33;;;;;;;28.70;15.93;;;;;;;8.10;100.00;101573.63;20914505;28;20048;-83
2022/01/01 08:13:36;;;;;;;28.98;14.75;;;;;;;8.23;100.00;101577.25;20895042;28;20064;-83
2022/01/01 08:23:37;;;;;;;27.38;14.65;;;;;;;8.36;100.00;101581.78;20893829;28;20103;-83
2022/01/01 08:33:43;;;;;;;26.27;14.63;;;;;;;8.55;100.00;101579.41;20892710;28;20044;-83
2022/01/01 08:43:45;;;;;;;28.25;14.90;;;;;;;8.75;100.00;101583.13;20891449;28;20049;-84
2022/01/01 08:53:47;;;;;;;27.63;15.30;;;;;;;8.92;100.00;101597.22;20910192;28;20106;-84
2022/01/01 09:03:49;;;;;;;25.63;14.90;;;;;;;9.09;100.00;101588.66;20891697;28;20049;-84
2022/01/01 09:13:51;;;;;;;27.13;15.75;;;;;;;9.29;100.00;101576.66;20890358;28;20041;-84
2022/01/01 09:23:53;;;;;;;23.75;14.13;;;;;;;9.44;100.00;101582.03;20905928;28;20048;-84
2022/01/01 09:33:55;;;;;;;23.77;14.50;;;;;;;9.64;100.00;101579.56;20887545;28;20110;-84
2022/01/01 09:43:57;;;;;;;23.13;12.82;;;;;;;9.78;99.91;101587.50;20889270;28;20490;-85
2022/01/01 09:53:59;;;;;;;22.45;12.35;;;;;;;9.95;99.25;101575.38;20888420;28;20051;-85
2022/01/01 10:04:01;;;;;;;23.38;13.55;;;;;;;10.24;97.20;101574.69;20887169;28;20098;-84
2022/01/01 10:14:05;;;;;;;22.52;13.25;;;;;;;10.43;96.15;101566.03;20891944;28;20426;-84
2022/01/01 10:24:13;;;;;;;22.70;13.35;;;;;;;10.41;94.39;101564.31;20922064;28;20484;-84
2022/01/01 10:45:39;;;;;;;22.35;13.60;;;;;;;10.72;94.31;101533.81;20933882;28;20076;-84
2022/01/01 10:55:46;;;;;;;23.90;13.67;;;;;;;10.94;93.22;101524.25;21004685;28;20051;-84
2022/01/01 11:05:48;;;;;;;21.52;12.35;;;;;;;11.04;92.19;101505.03;20985334;28;20044;-84
2022/01/01 11:15:51;;;;;;;20.88;12.68;;;;;;;11.23;91.82;101506.78;20983229;28;20041;-84
2022/01/01 11:25:54;;;;;;;21.05;10.82;;;;;;;11.35;91.15;101494.50;20986677;28;20048;-84
2022/01/01 11:35:58;;;;;;;17.40;9.63;;;;;;;11.50;91.53;101484.91;21027310;28;20101;-84
2022/01/01 11:46:04;;;;;;;16.03;9.33;;;;;;;11.62;90.70;101477.88;20984191;28;20045;-85
2022/01/01 11:56:10;;;;;;;17.95;9.38;;;;;;;11.72;89.39;101458.59;20999300;28;20566;-84
2022/01/01 12:06:11;;;;;;;14.93;8.98;;;;;;;11.71;90.54;101447.22;20979708;28;20044;-84
2022/01/01 12:16:20;;;;;;;15.63;9.00;;;;;;;11.72;91.13;101421.84;20979405;28;20496;-85
2022/01/01 12:26:31;;;;;;;14.93;8.75;;;;;;;11.79;90.10;101407.84;20999709;28;20048;-84
2022/01/01 12:36:34;;;;;;;13.05;7.70;;;;;;;11.86;89.82;101392.97;20990288;28;20566;-84
2022/01/01 12:46:55;;;;;;;13.88;7.30;;;;;;;11.81;88.56;101387.72;20999262;28;20045;-84
2022/01/01 12:57:00;;;;;;;14.82;7.68;;;;;;;11.91;87.49;101372.81;20978815;28;20044;-84
2022/01/01 13:07:03;;;;;;;16.98;8.68;;;;;;;11.84;88.73;101374.63;20992686;28;20102;-85
2022/01/01 13:17:05;;;;;;;13.10;7.47;;;;;;;11.84;90.13;101364.13;20973677;28;20045;-84
2022/01/01 13:27:07;;;;;;;13.90;7.90;;;;;;;11.80;88.66;101349.25;20972846;28;20058;-84
2022/01/01 13:37:08;;;;;;;17.73;9.20;;;;;;;11.60;90.53;101336.22;20990016;28;20074;-84
2022/01/01 13:47:15;;;;;;;13.77;7.40;;;;;;;11.56;90.69;101335.38;20976957;28;20075;-84
2022/01/01 13:57:16;;;;;;;11.23;6.95;;;;;;;11.56;89.68;101335.38;20994038;28;20049;-84
2022/01/01 14:07:19;;;;;;;11.55;6.72;;;;;;;11.48;89.49;101333.66;20970712;28;20460;-83
2022/01/01 14:17:20;;;;;;;11.65;6.35;;;;;;;11.45;90.24;101308.31;20974171;28;20494;-84
2022/01/01 14:27:23;;;;;;;11.18;6.68;;;;;;;11.34;89.80;101315.34;20976083;28;20098;-84
2022/01/01 14:37:24;;;;;;;11.20;5.40;;;;;;;11.28;90.49;101310.13;20987825;28;20040;-84
2022/01/01 14:47:31;;;;;;;8.50;4.90;;;;;;;11.20;90.69;101311.91;20971662;28;20107;-84
2022/01/01 14:57:40;;;;;;;10.57;5.93;;;;;;;11.09;91.25;101305.84;20971595;28;20335;-82
2022/01/01 15:07:44;;;;;;;12.32;6.85;;;;;;;11.00;92.21;101299.75;20982658;28;20049;-84
2022/01/01 15:17:48;;;;;;;13.23;7.63;;;;;;;10.87;92.12;101292.78;20986327;28;20072;-84
2022/01/01 15:27:50;;;;;;;19.13;10.02;;;;;;;10.67;93.52;101297.22;20984191;28;20049;-83
2022/01/01 15:37:58;;;;;;;26.17;15.57;;;;;;;10.36;95.67;101289.41;21001848;28;20052;-84
2022/01/01 15:48:00;;;;;;;10.85;6.13;;;;;;;9.83;100.00;101284.97;21003341;28;20044;-85
2022/01/01 16:09:27;;;;;;;13.27;9.52;;;;;;;9.38;100.00;101310.13;20998454;28;20037;-83
2022/01/01 16:19:30;;;;;;;10.35;6.80;;;;;;;9.12;100.00;101301.31;20985173;28;20048;-84
2022/01/01 16:29:32;;;;;;;14.30;9.07;;;;;;;8.86;100.00;101289.00;20977859;28;20045;-84
2022/01/01 16:39:33;;;;;;;11.95;8.05;;;;;;;8.69;100.00;101280.19;20974678;28;20097;-83
2022/01/01 16:49:40;;;;;;;10.20;5.40;;;;;;;8.62;100.00;101281.88;21014586;28;20052;-83
2022/01/01 16:59:53;;;;;;;14.57;7.32;;;;;;;8.37;100.00;101293.88;20977315;28;20048;-84
2022/01/01 17:09:58;;;;;;;15.00;8.45;;;;;;;8.20;100.00;101295.47;20976391;28;20040;-84
2022/01/01 17:20:03;;;;;;;;;;;;;;;8.04;100.00;101298.78;20977893;28;20045;-84
2022/01/01 17:30:06;;;;;;;11.15;5.63;;;;;;;7.90;100.00;101296.03;21015216;28;19987;-84
2022/01/01 17:40:14;;;;;;;12.63;6.22;;;;;;;7.78;100.00;101309.84;20973743;28;20048;-83
2022/01/01 17:50:42;;;;;;;12.95;8.43;;;;;;;7.68;100.00;101300.19;20977198;28;20100;-84
2022/01/01 18:00:45;;;;;;;13.07;7.90;;;;;;;7.51;100.00;101280.88;20971841;28;20106;-83
2022/01/01 18:10:52;;;;;;;13.23;8.32;;;;;;;7.31;100.00;101284.13;20971588;28;20056;-84
2022/01/01 18:20:58;;;;;;;12.88;7.63;;;;;;;7.22;100.00;101284.03;20973240;28;20048;-84
2022/01/01 18:31:07;;;;;;;20.42;10.88;;;;;;;7.16;100.00;101287.44;21008424;28;20478;-84
2022/01/01 18:41:15;;;;;;;19.50;11.80;;;;;;;7.07;100.00;101271.69;21009416;28;20102;-83
2022/01/01 18:51:25;;;;;;;29.25;16.85;;;;;;;6.94;100.00;101262.84;20984748;28;20048;-84
2022/01/01 19:01:35;;;;;;;32.20;18.70;;;;;;;6.88;100.00;101228.91;20995569;28;20052;-83
2022/01/01 19:11:40;;;;;;;30.33;17.88;;;;;;;6.74;100.00;101222.66;21002669;28;20048;-83
2022/01/01 19:21:43;;;;;;;27.00;17.40;;;;;;;6.68;100.00;101223.47;20985696;28;20053;-83
2022/01/01 19:31:46;;;;;;;32.22;19.05;;;;;;;6.68;100.00;101233.00;20986511;28;20486;-83
2022/01/01 19:42:06;;;;;;;31.25;20.02;;;;;;;6.68;100.00;101226.06;20981318;28;20721;-83
2022/01/01 19:52:08;;;;;;;28.55;16.63;;;;;;;6.63;100.00;101216.47;21020352;28;20105;-84
2022/01/01 20:02:09;;;;;;;24.20;16.45;;;;;;;6.47;100.00;101227.47;20985521;28;20048;-84
2022/01/01 20:12:11;;;;;;;24.63;14.45;;;;;;;6.24;100.00;101220.25;20977586;28;20119;-83
2022/01/01 20:22:14;;;;;;;19.30;12.25;;;;;;;6.04;100.00;101212.13;20976588;28;20048;-84
2022/01/01 20:32:15;;;;;;;15.63;9.20;;;;;;;5.81;100.00;101218.66;20986607;28;20413;-83
2022/01/01 20:42:18;;;;;;;15.77;8.75;;;;;;;5.73;100.00;101210.72;21000040;28;20102;-84
2022/01/01 20:52:20;;;;;;;17.05;8.35;;;;;;;5.68;100.00;101207.16;20978774;28;20640;-85
2022/01/01 21:02:27;;;;;;;16.02;8.60;;;;;;;5.66;100.00;101219.28;21006732;28;20509;-83
2022/01/01 21:12:29;;;;;;;18.80;10.95;;;;;;;5.64;100.00;101211.44;20990208;28;20079;-84
2022/01/01 21:22:31;;;;;;;21.08;12.18;;;;;;;5.58;100.00;101205.25;20993332;28;20075;-84
2022/01/01 21:32:32;;;;;;;29.77;17.05;;;;;;;5.54;100.00;101174.88;20976534;28;20094;-84
2022/01/01 21:42:34;;;;;;;27.08;16.17;;;;;;;5.63;100.00;101172.44;20997273;28;20040;-84
2022/01/01 21:52:36;;;;;;;24.65;15.93;;;;;;;5.56;100.00;101186.19;20975129;28;20106;-84
2022/01/01 22:02:37;;;;;;;29.83;16.25;;;;;;;5.53;100.00;101192.19;20989457;28;20572;-84
2022/01/01 22:12:39;;;;;;;26.30;15.10;;;;;;;5.36;100.00;101178.91;20986675;28;20049;-84
2022/01/01 22:22:40;;;;;;;29.55;17.30;;;;;;;5.37;100.00;101165.09;21014899;28;20079;-84
2022/01/01 22:32:48;;;;;;;25.67;14.13;;;;;;;5.46;100.00;101163.47;21017048;28;20290;-85
2022/01/01 22:42:49;;;;;;;22.90;12.50;;;;;;;5.47;100.00;101147.06;20989318;28;20118;-84
2022/01/01 22:52:51;;;;;;;28.05;15.25;;;;;;;5.48;100.00;101162.66;20988003;28;20048;-84
2022/01/01 23:02:53;;;;;;;31.33;15.38;;;;;;;5.48;100.00;101162.66;21003832;28;20474;-83
2022/01/01 23:12:54;;;;;;;28.17;15.52;;;;;;;5.39;100.00;101150.41;20991117;28;20049;-83
2022/01/01 23:22:57;;;;;;;30.25;17.20;;;;;;;5.41;100.00;101150.41;20995157;28;20045;-83
2022/01/01 23:33:00;;;;;;;36.75;21.02;;;;;;;5.46;100.00;101150.50;20997126;28;20052;-84
2022/01/01 23:43:02;;;;;;;36.15;19.15;;;;;;;5.55;100.00;101142.84;20992293;28;20040;-84
2022/01/01 23:53:10;;;;;;;35.42;17.52;;;;;;;5.68;100.00;101126.63;20994016;28;20075;-85
